createdAt,value
2022-08-09T00:02:01.104Z,98578.23
2022-08-09T00:04:34.738Z,98578.63
2022-08-09T00:07:10.434Z,98577.76
2022-08-09T00:09:42.745Z,98576.62
2022-08-09T00:12:22.651Z,98572.94
2022-08-09T00:14:57.548Z,98573.38
2022-08-09T00:18:06.179Z,98574.36
2022-08-09T00:20:38.179Z,98573.83
2022-08-09T00:23:55.082Z,98574.98
2022-08-09T00:26:32.246Z,98574.22
2022-08-09T00:30:16.179Z,98573.90
2022-08-09T00:32:06.743Z,98573.47
2022-08-09T00:34:39.610Z,98574.08
2022-08-09T00:37:19.828Z,98576.64
2022-08-09T00:44:19.182Z,98573.56
2022-08-09T00:46:56.040Z,98568.19
2022-08-09T00:49:31.078Z,98572.33
2022-08-09T00:52:32.778Z,98575.00
2022-08-09T00:56:04.808Z,98574.23
2022-08-09T00:59:41.253Z,98570.79
2022-08-09T01:06:25.497Z,98578.19
2022-08-09T01:09:37.392Z,98579.65
2022-08-09T01:12:45.242Z,98584.91
2022-08-09T01:15:24.108Z,98585.17
2022-08-09T01:18:06.629Z,98582.14
2022-08-09T01:21:10.045Z,98582.67
2022-08-09T01:24:04.960Z,98580.77
2022-08-09T01:27:00.678Z,98581.13
2022-08-09T01:29:41.003Z,98582.36
2022-08-09T01:36:49.702Z,98580.66
2022-08-09T01:39:23.169Z,98580.61
2022-08-09T01:42:03.016Z,98581.26
2022-08-09T01:47:52.642Z,98581.89
2022-08-09T01:50:28.971Z,98582.58
2022-08-09T01:53:19.794Z,98580.90
2022-08-09T01:55:55.207Z,98584.14
2022-08-09T02:02:50.782Z,98583.36
2022-08-09T02:05:38.096Z,98583.61
2022-08-09T02:08:35.299Z,98584.41
2022-08-09T02:11:22.420Z,98584.63
2022-08-09T02:14:07.044Z,98585.22
2022-08-09T02:16:59.154Z,98582.67
2022-08-09T02:19:39.167Z,98580.72
2022-08-09T02:23:13.604Z,98585.13
2022-08-09T02:26:03.464Z,98590.71
2022-08-09T02:28:43.329Z,98591.80
2022-08-09T02:31:58.955Z,98586.59
2022-08-09T02:34:40.422Z,98586.74
2022-08-09T02:37:15.619Z,98590.45
2022-08-09T03:05:02.341Z,98607.44
2022-08-09T03:09:56.733Z,98608.58
2022-08-09T03:24:04.738Z,98612.77
2022-08-09T03:26:40.399Z,98615.42
2022-08-09T03:29:22.660Z,98619.60
2022-08-09T03:32:00.516Z,98623.67
2022-08-09T03:34:36.997Z,98620.02
2022-08-09T03:37:59.874Z,98620.02
2022-08-09T03:41:19.776Z,98622.89
2022-08-09T04:04:02.079Z,98623.69
2022-08-09T04:06:39.882Z,98626.28
2022-08-09T04:09:44.330Z,98620.63
2022-08-09T04:34:00.658Z,98615.78
2022-08-09T04:37:57.121Z,98615.56
2022-08-09T05:06:11.298Z,98622.34
2022-08-09T05:09:16.084Z,98622.33
2022-08-09T05:11:52.748Z,98622.33
2022-08-09T05:14:33.377Z,98625.23
2022-08-09T05:17:15.419Z,98627.19
2022-08-09T05:20:01.246Z,98629.79
2022-08-09T05:22:36.030Z,98633.41
2022-08-09T05:25:45.762Z,98629.14
2022-08-09T05:28:27.151Z,98631.88
2022-08-09T05:31:09.438Z,98632.05
2022-08-09T05:33:45.351Z,98632.63
2022-08-09T05:36:22.802Z,98634.90
2022-08-09T05:39:05.096Z,98635.72
2022-08-09T05:41:46.702Z,98636.41
2022-08-09T05:47:51.576Z,98642.55
2022-08-09T05:50:50.943Z,98642.88
2022-08-09T05:54:13.945Z,98642.11
2022-08-09T05:57:12.667Z,98647.21
2022-08-09T06:00:16.108Z,98641.61
2022-08-09T06:02:47.855Z,98638.80
2022-08-09T06:05:17.690Z,98638.18
2022-08-09T06:07:52.704Z,98637.96
2022-08-09T06:10:43.414Z,98640.59
2022-08-09T06:13:22.374Z,98641.16
2022-08-09T06:15:55.068Z,98641.05
2022-08-09T06:18:35.146Z,98637.58
2022-08-09T06:21:10.310Z,98638.52
2022-08-09T06:24:03.511Z,98635.94
2022-08-09T06:26:43.613Z,98636.00
2022-08-09T06:29:16.279Z,98633.73
2022-08-09T06:32:08.414Z,98633.62
2022-08-09T06:34:49.031Z,98632.64
2022-08-09T06:37:28.970Z,98631.81
2022-08-09T06:40:16.335Z,98627.83
2022-08-09T06:43:14.831Z,98622.80
2022-08-09T06:46:07.312Z,98618.30
2022-08-09T06:48:45.683Z,98623.59
2022-08-09T06:54:24.516Z,98623.45
2022-08-09T06:57:00.336Z,98619.81
2022-08-09T07:00:49.648Z,98618.63
2022-08-09T07:02:41.550Z,98622.70
2022-08-09T07:05:18.396Z,98621.80
2022-08-09T07:08:13.800Z,98619.66
2022-08-09T07:11:25.796Z,98617.19
2022-08-09T07:14:50.858Z,98612.58
2022-08-09T07:17:39.525Z,98611.96
2022-08-09T07:20:19.488Z,98616.09
2022-08-09T07:22:54.797Z,98614.98
2022-08-09T07:25:43.523Z,98615.61
2022-08-09T07:28:28.090Z,98614.50
2022-08-09T07:31:45.420Z,98612.25
2022-08-09T07:34:30.037Z,98609.58
2022-08-09T07:37:15.626Z,98612.89
2022-08-09T07:39:55.963Z,98610.66
2022-08-09T07:42:32.480Z,98609.23
2022-08-09T07:45:29.220Z,98611.06
2022-08-09T07:48:25.288Z,98610.20
2022-08-09T07:51:03.042Z,98609.36
2022-08-09T07:54:06.976Z,98606.26
2022-08-09T07:56:48.668Z,98606.19
2022-08-09T08:00:03.424Z,98607.38
2022-08-09T08:02:49.000Z,98602.66
2022-08-09T08:05:23.769Z,98599.88
2022-08-09T08:08:43.564Z,98594.70
2022-08-09T08:12:24.167Z,98590.70
2022-08-09T08:14:21.247Z,98597.05
2022-08-09T08:17:24.901Z,98592.52
2022-08-09T08:20:50.150Z,98590.63
2022-08-09T08:24:11.797Z,98584.02
2022-08-09T08:30:16.926Z,98579.82
2022-08-09T08:36:37.882Z,98572.05
2022-08-09T08:39:49.443Z,98570.08
2022-08-09T08:42:36.757Z,98568.10
2022-08-09T08:45:13.261Z,98566.86
2022-08-09T09:00:27.811Z,98552.30
2022-08-09T09:16:03.075Z,98542.14
2022-08-09T09:27:08.546Z,98530.23
2022-08-09T09:51:38.374Z,98509.03
2022-08-09T09:58:58.450Z,98505.44
2022-08-09T10:09:57.998Z,98499.31
2022-08-09T10:12:51.918Z,98500.99
2022-08-09T10:16:56.902Z,98497.67
2022-08-09T10:19:45.937Z,98497.46
2022-08-09T10:22:15.782Z,98495.55
2022-08-09T10:25:11.763Z,98494.05
2022-08-09T10:34:51.052Z,98493.40
2022-08-09T10:37:24.339Z,98492.13
2022-08-09T10:40:41.184Z,98484.66
2022-08-09T10:44:26.693Z,98478.06
2022-08-09T10:47:20.365Z,98477.83
2022-08-09T11:36:47.995Z,98477.95
2022-08-09T11:40:48.608Z,98483.38
2022-08-09T11:47:50.210Z,98470.79
2022-08-09T11:50:56.996Z,98456.80
2022-08-09T11:54:33.210Z,98445.36
2022-08-09T11:58:00.734Z,98436.06
2022-08-09T12:02:18.147Z,98439.58
2022-08-09T12:08:27.393Z,98439.54
2022-08-09T12:11:02.934Z,98431.36
2022-08-09T12:14:09.251Z,98430.52
2022-08-09T12:16:47.546Z,98426.95
2022-08-09T12:19:32.405Z,98424.13
2022-08-09T12:29:11.082Z,98407.98
2022-08-09T12:34:01.324Z,98404.14
2022-08-09T12:37:23.804Z,98402.08
2022-08-09T12:40:15.657Z,98395.23
2022-08-09T12:44:06.985Z,98399.32
2022-08-09T13:05:20.839Z,98387.63
2022-08-09T13:47:58.905Z,98383.42
2022-08-09T13:50:50.327Z,98383.91
2022-08-09T13:53:54.146Z,98384.39
2022-08-09T13:56:37.099Z,98382.27
2022-08-09T13:59:44.355Z,98385.77
2022-08-09T14:03:16.798Z,98386.88
2022-08-09T14:09:34.723Z,98374.85
2022-08-09T14:16:10.221Z,98374.33
2022-08-09T14:18:49.503Z,98373.98
2022-08-09T14:21:57.243Z,98377.69
2022-08-09T14:24:33.868Z,98375.08
2022-08-09T14:38:53.881Z,98358.52
2022-08-09T14:41:39.627Z,98352.80
2022-08-09T14:53:15.813Z,98349.56
2022-08-09T15:04:23.941Z,98345.73
2022-08-09T15:46:28.222Z,98345.70
2022-08-09T15:50:03.983Z,98347.81
2022-08-09T16:10:05.187Z,98365.83
2022-08-09T16:14:04.082Z,98368.45
2022-08-09T16:16:26.235Z,98366.17
2022-08-09T16:22:51.288Z,98369.17
2022-08-09T16:28:53.746Z,98367.74
2022-08-09T16:31:37.961Z,98362.85
2022-08-09T16:34:23.716Z,98363.25
2022-08-09T16:37:53.735Z,98363.73
2022-08-09T16:40:44.586Z,98366.98
2022-08-09T16:51:19.024Z,98381.23
2022-08-09T17:10:37.735Z,98389.95
2022-08-09T17:43:34.426Z,98409.20
2022-08-09T17:46:18.237Z,98408.01
2022-08-09T17:49:21.940Z,98413.95
2022-08-09T17:52:22.057Z,98416.79
2022-08-09T17:55:03.247Z,98422.35
2022-08-09T18:01:09.221Z,98427.02
2022-08-09T18:03:48.886Z,98428.11
2022-08-09T18:06:28.834Z,98431.80
2022-08-09T18:09:07.402Z,98442.36
2022-08-09T18:12:15.515Z,98449.73
2022-08-09T18:14:54.797Z,98459.85
2022-08-09T18:18:08.139Z,98465.27
2022-08-09T18:24:14.126Z,98469.88
2022-08-09T18:26:48.188Z,98472.04
2022-08-09T18:30:41.256Z,98472.36
2022-08-09T18:32:27.955Z,98478.17
2022-08-09T18:35:04.011Z,98480.81
2022-08-09T18:41:18.294Z,98496.45
2022-08-09T18:44:46.826Z,98492.85
2022-08-09T18:47:27.731Z,98491.52
2022-08-09T18:50:12.341Z,98490.83
2022-08-09T18:52:56.423Z,98494.09
2022-08-09T18:55:56.538Z,98497.06
2022-08-09T18:58:32.441Z,98494.85
2022-08-09T19:01:09.243Z,98491.42
2022-08-09T19:04:01.256Z,98491.08
2022-08-09T19:06:50.576Z,98493.58
2022-08-09T19:10:12.841Z,98493.33
2022-08-09T19:12:25.042Z,98496.69
2022-08-09T19:15:34.447Z,98494.86
2022-08-09T19:18:17.265Z,98494.67
2022-08-09T19:21:09.563Z,98498.23
2022-08-09T19:24:33.161Z,98497.23
2022-08-09T19:26:51.523Z,98498.99
2022-08-09T19:29:38.112Z,98502.27
2022-08-09T19:32:40.102Z,98501.16
2022-08-09T19:35:16.631Z,98501.55
2022-08-09T19:38:05.088Z,98501.96
2022-08-09T19:40:49.814Z,98507.08
2022-08-09T19:46:34.951Z,98508.02
2022-08-09T19:50:07.438Z,98512.64
2022-08-09T19:52:52.048Z,98512.31
2022-08-09T19:55:39.004Z,98517.45
2022-08-09T19:59:39.393Z,98516.89
2022-08-09T20:04:12.610Z,98520.49
2022-08-09T20:05:46.148Z,98528.06
2022-08-09T20:08:41.476Z,98534.43
2022-08-09T20:11:20.559Z,98530.39
2022-08-09T20:14:22.999Z,98530.23
2022-08-09T20:17:02.330Z,98530.27
2022-08-09T20:19:47.567Z,98529.70
2022-08-09T20:22:36.289Z,98532.20
2022-08-09T20:25:38.155Z,98530.85
2022-08-09T20:28:38.678Z,98534.44
2022-08-09T20:31:33.388Z,98535.58
2022-08-09T20:34:31.045Z,98530.52
2022-08-09T20:37:21.481Z,98530.17
2022-08-09T20:40:18.090Z,98535.80
2022-08-09T20:43:18.236Z,98538.03
2022-08-09T20:46:42.212Z,98530.90
2022-08-09T20:49:00.448Z,98530.02
2022-08-09T20:51:40.894Z,98530.66
2022-08-09T20:54:18.835Z,98528.17
2022-08-09T20:56:53.963Z,98530.25
2022-08-09T21:00:19.504Z,98529.61
2022-08-09T21:02:36.651Z,98532.31
2022-08-09T21:05:57.979Z,98528.58
2022-08-09T21:08:03.654Z,98532.98
2022-08-09T21:10:33.702Z,98533.66
2022-08-09T21:13:07.241Z,98529.66
2022-08-09T21:16:19.041Z,98529.38
2022-08-09T21:19:01.730Z,98525.04
2022-08-09T21:22:03.371Z,98529.34
2022-08-09T21:24:59.864Z,98529.33
2022-08-09T21:28:01.351Z,98526.98
2022-08-09T21:30:40.188Z,98528.56
2022-08-09T21:33:22.106Z,98522.66
2022-08-09T21:39:22.042Z,98519.10
2022-08-09T21:42:10.464Z,98515.91
2022-08-09T21:45:00.571Z,98515.48
2022-08-09T21:47:31.081Z,98512.81
2022-08-09T21:50:36.034Z,98507.98
2022-08-09T21:53:15.615Z,98497.64
2022-08-09T21:55:55.114Z,98497.04
2022-08-09T21:58:33.628Z,98490.41
2022-08-09T22:01:11.983Z,98493.03
2022-08-09T22:03:59.369Z,98507.17
2022-08-09T22:06:43.057Z,98496.85
2022-08-09T22:09:45.519Z,98493.54
2022-08-09T22:12:52.509Z,98488.42
2022-08-09T22:15:42.789Z,98492.02
2022-08-09T22:18:24.110Z,98495.52
2022-08-09T22:21:09.880Z,98496.48
2022-08-09T22:24:02.055Z,98495.51
2022-08-09T22:26:37.750Z,98495.13
2022-08-09T22:29:13.351Z,98489.54
2022-08-09T22:31:57.858Z,98490.86
2022-08-09T22:34:31.813Z,98488.03
2022-08-09T22:37:02.547Z,98481.60
2022-08-09T22:39:56.135Z,98480.61
2022-08-09T22:42:28.899Z,98490.27
2022-08-09T22:48:18.264Z,98511.33
2022-08-09T22:48:36.115Z,98527.04
2022-08-09T22:51:10.669Z,98520.77
2022-08-09T22:54:02.243Z,98509.48
2022-08-09T22:56:50.904Z,98512.18
2022-08-09T22:59:58.021Z,98513.45
2022-08-09T23:02:28.165Z,98517.65
2022-08-09T23:04:57.041Z,98521.11
2022-08-09T23:08:23.173Z,98528.24
2022-08-09T23:10:43.845Z,98533.84
2022-08-09T23:13:24.934Z,98531.81
2022-08-09T23:16:03.395Z,98534.84
2022-08-09T23:18:39.486Z,98537.52
2022-08-09T23:21:25.233Z,98545.56
2022-08-09T23:24:22.823Z,98552.70
2022-08-09T23:26:54.398Z,98552.80
2022-08-09T23:29:30.976Z,98549.48
2022-08-09T23:32:08.170Z,98552.35
2022-08-09T23:34:41.373Z,98552.88
2022-08-09T23:37:17.694Z,98549.88
2022-08-09T23:39:58.950Z,98548.18
2022-08-09T23:42:29.610Z,98548.13
2022-08-09T23:45:37.776Z,98544.23
2022-08-09T23:48:10.850Z,98539.17
2022-08-09T23:50:47.388Z,98539.17
2022-08-09T23:53:25.588Z,98534.84
2022-08-09T23:56:03.908Z,98528.20
2022-08-09T23:58:45.685Z,98522.10
